sensor_id;sensor_type;location;lat;lon;timestamp;P1;durP1;ratioP1;P2;durP2;ratioP2
22318;SDS011;11327;52.334;9.506;2022-08-18T00:00:04;8.75;;;7.78;;
22318;SDS011;11327;52.334;9.506;2022-08-18T00:03:27;9.13;;;8.20;;
22318;SDS011;11327;52.334;9.506;2022-08-18T00:06:50;9.20;;;8.08;;
22318;SDS011;11327;52.334;9.506;2022-08-18T00:10:11;8.98;;;8.10;;
22318;SDS011;11327;52.334;9.506;2022-08-18T00:13:33;12.35;;;10.75;;
22318;SDS011;11327;52.334;9.506;2022-08-18T00:16:54;17.45;;;14.63;;
22318;SDS011;11327;52.334;9.506;2022-08-18T00:20:17;17.10;;;14.98;;
22318;SDS011;11327;52.334;9.506;2022-08-18T00:23:40;17.32;;;14.35;;
22318;SDS011;11327;52.334;9.506;2022-08-18T00:27:01;18.62;;;16.62;;
22318;SDS011;11327;52.334;9.506;2022-08-18T00:30:22;19.62;;;16.93;;
22318;SDS011;11327;52.334;9.506;2022-08-18T00:33:44;21.87;;;18.65;;
22318;SDS011;11327;52.334;9.506;2022-08-18T00:37:05;24.02;;;20.82;;
22318;SDS011;11327;52.334;9.506;2022-08-18T00:40:30;23.70;;;20.65;;
22318;SDS011;11327;52.334;9.506;2022-08-18T00:43:59;27.02;;;22.80;;
22318;SDS011;11327;52.334;9.506;2022-08-18T00:47:20;24.85;;;22.15;;
22318;SDS011;11327;52.334;9.506;2022-08-18T00:50:44;27.27;;;24.27;;
22318;SDS011;11327;52.334;9.506;2022-08-18T00:54:23;28.95;;;25.82;;
22318;SDS011;11327;52.334;9.506;2022-08-18T00:57:43;26.00;;;23.00;;
22318;SDS011;11327;52.334;9.506;2022-08-18T01:01:05;29.40;;;25.12;;
22318;SDS011;11327;52.334;9.506;2022-08-18T01:04:36;29.37;;;24.87;;
22318;SDS011;11327;52.334;9.506;2022-08-18T01:08:15;27.42;;;24.05;;
22318;SDS011;11327;52.334;9.506;2022-08-18T01:11:37;26.07;;;23.27;;
22318;SDS011;11327;52.334;9.506;2022-08-18T01:14:58;26.80;;;23.75;;
22318;SDS011;11327;52.334;9.506;2022-08-18T01:18:20;28.57;;;24.57;;
22318;SDS011;11327;52.334;9.506;2022-08-18T01:22:01;26.80;;;22.52;;
22318;SDS011;11327;52.334;9.506;2022-08-18T01:25:24;26.33;;;23.47;;
22318;SDS011;11327;52.334;9.506;2022-08-18T01:29:05;22.87;;;20.25;;
22318;SDS011;11327;52.334;9.506;2022-08-18T01:32:31;24.07;;;21.48;;
22318;SDS011;11327;52.334;9.506;2022-08-18T01:35:52;25.23;;;22.52;;
22318;SDS011;11327;52.334;9.506;2022-08-18T01:39:14;24.15;;;21.15;;
22318;SDS011;11327;52.334;9.506;2022-08-18T01:42:35;24.87;;;22.20;;
22318;SDS011;11327;52.334;9.506;2022-08-18T01:45:57;24.67;;;21.93;;
22318;SDS011;11327;52.334;9.506;2022-08-18T01:49:20;25.55;;;22.77;;
22318;SDS011;11327;52.334;9.506;2022-08-18T01:52:42;24.80;;;21.82;;
22318;SDS011;11327;52.334;9.506;2022-08-18T01:56:03;25.32;;;22.62;;
22318;SDS011;11327;52.334;9.506;2022-08-18T01:59:25;26.35;;;23.55;;
22318;SDS011;11327;52.334;9.506;2022-08-18T02:02:46;27.90;;;24.25;;
22318;SDS011;11327;52.334;9.506;2022-08-18T02:06:09;26.80;;;22.67;;
22318;SDS011;11327;52.334;9.506;2022-08-18T02:09:32;30.62;;;24.57;;
22318;SDS011;11327;52.334;9.506;2022-08-18T02:12:53;28.50;;;24.40;;
22318;SDS011;11327;52.334;9.506;2022-08-18T02:16:14;31.85;;;25.17;;
22318;SDS011;11327;52.334;9.506;2022-08-18T02:19:37;26.40;;;23.38;;
22318;SDS011;11327;52.334;9.506;2022-08-18T02:23:05;27.90;;;24.87;;
22318;SDS011;11327;52.334;9.506;2022-08-18T02:26:26;27.35;;;24.02;;
22318;SDS011;11327;52.334;9.506;2022-08-18T02:29:47;32.38;;;27.05;;
22318;SDS011;11327;52.334;9.506;2022-08-18T02:33:09;28.92;;;25.20;;
22318;SDS011;11327;52.334;9.506;2022-08-18T02:36:31;27.13;;;24.20;;
22318;SDS011;11327;52.334;9.506;2022-08-18T02:39:52;30.15;;;25.48;;
22318;SDS011;11327;52.334;9.506;2022-08-18T02:43:13;30.90;;;25.35;;
22318;SDS011;11327;52.334;9.506;2022-08-18T02:46:34;28.15;;;24.82;;
22318;SDS011;11327;52.334;9.506;2022-08-18T02:49:56;29.40;;;26.12;;
22318;SDS011;11327;52.334;9.506;2022-08-18T02:53:17;29.35;;;24.95;;
22318;SDS011;11327;52.334;9.506;2022-08-18T02:56:40;29.65;;;25.50;;
22318;SDS011;11327;52.334;9.506;2022-08-18T03:00:02;30.65;;;27.10;;
22318;SDS011;11327;52.334;9.506;2022-08-18T03:03:24;33.30;;;27.58;;
22318;SDS011;11327;52.334;9.506;2022-08-18T03:06:45;31.05;;;26.55;;
22318;SDS011;11327;52.334;9.506;2022-08-18T03:10:07;29.72;;;25.88;;
22318;SDS011;11327;52.334;9.506;2022-08-18T03:13:29;32.55;;;27.30;;
22318;SDS011;11327;52.334;9.506;2022-08-18T03:16:50;29.77;;;26.45;;
22318;SDS011;11327;52.334;9.506;2022-08-18T03:20:11;33.08;;;27.27;;
22318;SDS011;11327;52.334;9.506;2022-08-18T03:23:33;31.10;;;26.90;;
22318;SDS011;11327;52.334;9.506;2022-08-18T03:26:54;31.27;;;26.95;;
22318;SDS011;11327;52.334;9.506;2022-08-18T03:30:16;31.07;;;27.25;;
22318;SDS011;11327;52.334;9.506;2022-08-18T03:33:37;31.35;;;27.30;;
22318;SDS011;11327;52.334;9.506;2022-08-18T03:36:58;33.42;;;27.82;;
22318;SDS011;11327;52.334;9.506;2022-08-18T03:40:19;34.67;;;28.95;;
22318;SDS011;11327;52.334;9.506;2022-08-18T03:43:40;37.28;;;30.72;;
22318;SDS011;11327;52.334;9.506;2022-08-18T03:47:01;31.87;;;27.58;;
22318;SDS011;11327;52.334;9.506;2022-08-18T03:50:23;36.83;;;29.87;;
22318;SDS011;11327;52.334;9.506;2022-08-18T03:53:45;35.73;;;29.95;;
22318;SDS011;11327;52.334;9.506;2022-08-18T03:57:08;40.98;;;32.67;;
22318;SDS011;11327;52.334;9.506;2022-08-18T04:00:31;39.40;;;32.17;;
22318;SDS011;11327;52.334;9.506;2022-08-18T04:03:54;41.08;;;34.58;;
22318;SDS011;11327;52.334;9.506;2022-08-18T04:07:17;40.92;;;33.00;;
22318;SDS011;11327;52.334;9.506;2022-08-18T04:10:38;40.83;;;33.60;;
22318;SDS011;11327;52.334;9.506;2022-08-18T04:13:59;42.80;;;33.60;;
22318;SDS011;11327;52.334;9.506;2022-08-18T04:17:20;39.63;;;32.67;;
22318;SDS011;11327;52.334;9.506;2022-08-18T04:20:44;38.38;;;30.25;;
22318;SDS011;11327;52.334;9.506;2022-08-18T04:24:06;40.08;;;32.75;;
22318;SDS011;11327;52.334;9.506;2022-08-18T04:27:29;36.95;;;30.57;;
22318;SDS011;11327;52.334;9.506;2022-08-18T04:30:50;38.40;;;30.55;;
22318;SDS011;11327;52.334;9.506;2022-08-18T04:34:11;36.33;;;30.75;;
22318;SDS011;11327;52.334;9.506;2022-08-18T04:37:33;38.30;;;31.77;;
22318;SDS011;11327;52.334;9.506;2022-08-18T04:40:58;38.53;;;30.30;;
22318;SDS011;11327;52.334;9.506;2022-08-18T04:44:20;40.45;;;33.13;;
22318;SDS011;11327;52.334;9.506;2022-08-18T04:47:41;36.70;;;29.67;;
22318;SDS011;11327;52.334;9.506;2022-08-18T04:51:03;34.58;;;29.40;;
22318;SDS011;11327;52.334;9.506;2022-08-18T04:54:27;39.15;;;31.40;;
22318;SDS011;11327;52.334;9.506;2022-08-18T04:57:48;35.38;;;29.40;;
22318;SDS011;11327;52.334;9.506;2022-08-18T05:01:09;35.15;;;28.10;;
22318;SDS011;11327;52.334;9.506;2022-08-18T05:04:30;31.57;;;26.85;;
22318;SDS011;11327;52.334;9.506;2022-08-18T05:07:51;35.08;;;28.35;;
22318;SDS011;11327;52.334;9.506;2022-08-18T05:11:12;38.05;;;29.60;;
22318;SDS011;11327;52.334;9.506;2022-08-18T05:14:34;37.03;;;29.45;;
22318;SDS011;11327;52.334;9.506;2022-08-18T05:17:55;37.75;;;31.07;;
22318;SDS011;11327;52.334;9.506;2022-08-18T05:21:16;33.55;;;27.80;;
22318;SDS011;11327;52.334;9.506;2022-08-18T05:24:37;37.20;;;29.02;;
22318;SDS011;11327;52.334;9.506;2022-08-18T05:27:58;37.48;;;30.20;;
22318;SDS011;11327;52.334;9.506;2022-08-18T05:31:21;36.33;;;28.47;;
22318;SDS011;11327;52.334;9.506;2022-08-18T05:34:43;38.10;;;30.05;;
22318;SDS011;11327;52.334;9.506;2022-08-18T05:38:28;39.08;;;30.50;;
22318;SDS011;11327;52.334;9.506;2022-08-18T05:41:39;39.63;;;31.07;;
22318;SDS011;11327;52.334;9.506;2022-08-18T05:45:02;37.80;;;29.90;;
22318;SDS011;11327;52.334;9.506;2022-08-18T05:48:26;34.73;;;28.00;;
22318;SDS011;11327;52.334;9.506;2022-08-18T05:51:48;35.13;;;28.70;;
22318;SDS011;11327;52.334;9.506;2022-08-18T05:55:13;41.50;;;32.40;;
22318;SDS011;11327;52.334;9.506;2022-08-18T05:58:54;39.42;;;31.40;;
22318;SDS011;11327;52.334;9.506;2022-08-18T06:02:41;42.65;;;33.75;;
22318;SDS011;11327;52.334;9.506;2022-08-18T06:05:55;45.28;;;33.53;;
22318;SDS011;11327;52.334;9.506;2022-08-18T06:09:54;46.85;;;36.45;;
22318;SDS011;11327;52.334;9.506;2022-08-18T06:12:58;49.30;;;37.80;;
22318;SDS011;11327;52.334;9.506;2022-08-18T06:24:11;55.92;;;41.90;;
22318;SDS011;11327;52.334;9.506;2022-08-18T06:31:09;60.98;;;43.83;;
22318;SDS011;11327;52.334;9.506;2022-08-18T06:45:33;56.05;;;41.53;;
22318;SDS011;11327;52.334;9.506;2022-08-18T06:48:55;56.25;;;42.15;;
22318;SDS011;11327;52.334;9.506;2022-08-18T06:55:49;51.02;;;38.48;;
22318;SDS011;11327;52.334;9.506;2022-08-18T07:03:00;49.77;;;38.42;;
22318;SDS011;11327;52.334;9.506;2022-08-18T07:06:32;48.80;;;37.25;;
22318;SDS011;11327;52.334;9.506;2022-08-18T07:09:53;49.40;;;37.38;;
22318;SDS011;11327;52.334;9.506;2022-08-18T07:13:16;47.58;;;36.70;;
22318;SDS011;11327;52.334;9.506;2022-08-18T07:16:48;50.03;;;38.88;;
22318;SDS011;11327;52.334;9.506;2022-08-18T07:23:43;50.78;;;38.40;;
22318;SDS011;11327;52.334;9.506;2022-08-18T07:30:37;52.17;;;37.67;;
22318;SDS011;11327;52.334;9.506;2022-08-18T07:34:00;50.33;;;37.48;;
22318;SDS011;11327;52.334;9.506;2022-08-18T07:40:54;47.48;;;35.52;;
22318;SDS011;11327;52.334;9.506;2022-08-18T07:44:20;46.92;;;35.38;;
22318;SDS011;11327;52.334;9.506;2022-08-18T07:51:43;44.65;;;34.90;;
22318;SDS011;11327;52.334;9.506;2022-08-18T07:58:52;44.45;;;31.97;;
22318;SDS011;11327;52.334;9.506;2022-08-18T08:02:19;38.55;;;29.87;;
22318;SDS011;11327;52.334;9.506;2022-08-18T08:05:59;38.40;;;28.75;;
22318;SDS011;11327;52.334;9.506;2022-08-18T08:16:45;34.27;;;27.55;;
22318;SDS011;11327;52.334;9.506;2022-08-18T08:23:43;34.35;;;28.42;;
22318;SDS011;11327;52.334;9.506;2022-08-18T08:27:03;33.53;;;27.35;;
22318;SDS011;11327;52.334;9.506;2022-08-18T08:30:29;33.33;;;27.50;;
22318;SDS011;11327;52.334;9.506;2022-08-18T08:33:55;35.13;;;27.10;;
22318;SDS011;11327;52.334;9.506;2022-08-18T08:37:22;36.28;;;28.62;;
22318;SDS011;11327;52.334;9.506;2022-08-18T08:40:56;34.67;;;27.65;;
22318;SDS011;11327;52.334;9.506;2022-08-18T08:44:25;33.08;;;27.42;;
22318;SDS011;11327;52.334;9.506;2022-08-18T08:47:44;32.40;;;27.70;;
22318;SDS011;11327;52.334;9.506;2022-08-18T08:54:55;34.53;;;29.30;;
22318;SDS011;11327;52.334;9.506;2022-08-18T09:01:55;36.90;;;30.90;;
22318;SDS011;11327;52.334;9.506;2022-08-18T09:05:22;35.33;;;30.12;;
22318;SDS011;11327;52.334;9.506;2022-08-18T09:19:50;34.15;;;29.25;;
22318;SDS011;11327;52.334;9.506;2022-08-18T09:23:29;31.70;;;26.68;;
22318;SDS011;11327;52.334;9.506;2022-08-18T09:26:53;33.05;;;29.00;;
22318;SDS011;11327;52.334;9.506;2022-08-18T09:34:30;30.27;;;27.00;;
22318;SDS011;11327;52.334;9.506;2022-08-18T09:37:52;29.45;;;25.25;;
22318;SDS011;11327;52.334;9.506;2022-08-18T09:41:36;30.12;;;26.25;;
22318;SDS011;11327;52.334;9.506;2022-08-18T09:45:05;29.00;;;25.88;;
22318;SDS011;11327;52.334;9.506;2022-08-18T09:48:35;30.20;;;26.80;;
22318;SDS011;11327;52.334;9.506;2022-08-18T09:51:59;28.87;;;25.32;;
22318;SDS011;11327;52.334;9.506;2022-08-18T09:58:54;28.30;;;25.37;;
22318;SDS011;11327;52.334;9.506;2022-08-18T10:05:56;25.82;;;23.10;;
22318;SDS011;11327;52.334;9.506;2022-08-18T10:09:30;23.70;;;21.20;;
22318;SDS011;11327;52.334;9.506;2022-08-18T10:20:22;20.82;;;18.73;;
22318;SDS011;11327;52.334;9.506;2022-08-18T10:24:17;20.70;;;18.45;;
22318;SDS011;11327;52.334;9.506;2022-08-18T10:27:35;22.03;;;19.27;;
22318;SDS011;11327;52.334;9.506;2022-08-18T10:31:05;20.35;;;18.20;;
22318;SDS011;11327;52.334;9.506;2022-08-18T10:41:29;18.02;;;16.25;;
22318;SDS011;11327;52.334;9.506;2022-08-18T10:44:52;18.60;;;16.52;;
22318;SDS011;11327;52.334;9.506;2022-08-18T10:52:17;15.18;;;13.58;;
22318;SDS011;11327;52.334;9.506;2022-08-18T10:59:20;14.30;;;12.90;;
22318;SDS011;11327;52.334;9.506;2022-08-18T11:06:15;11.50;;;10.38;;
22318;SDS011;11327;52.334;9.506;2022-08-18T11:09:36;11.93;;;10.82;;
22318;SDS011;11327;52.334;9.506;2022-08-18T11:20:26;12.03;;;10.82;;
22318;SDS011;11327;52.334;9.506;2022-08-18T11:24:33;11.97;;;10.87;;
22318;SDS011;11327;52.334;9.506;2022-08-18T11:27:32;11.95;;;10.85;;
22318;SDS011;11327;52.334;9.506;2022-08-18T11:34:20;11.45;;;9.70;;
22318;SDS011;11327;52.334;9.506;2022-08-18T11:37:44;11.50;;;10.40;;
22318;SDS011;11327;52.334;9.506;2022-08-18T11:41:13;11.10;;;10.10;;
22318;SDS011;11327;52.334;9.506;2022-08-18T11:44:38;11.30;;;10.20;;
22318;SDS011;11327;52.334;9.506;2022-08-18T11:51:32;11.53;;;10.53;;
22318;SDS011;11327;52.334;9.506;2022-08-18T11:55:01;12.23;;;10.53;;
22318;SDS011;11327;52.334;9.506;2022-08-18T11:58:36;11.50;;;10.40;;
22318;SDS011;11327;52.334;9.506;2022-08-18T12:02:01;12.03;;;10.90;;
22318;SDS011;11327;52.334;9.506;2022-08-18T12:05:22;11.00;;;10.00;;
22318;SDS011;11327;52.334;9.506;2022-08-18T12:08:48;11.70;;;10.60;;
22318;SDS011;11327;52.334;9.506;2022-08-18T12:15:38;11.73;;;10.63;;
22318;SDS011;11327;52.334;9.506;2022-08-18T12:19:00;12.47;;;11.35;;
22318;SDS011;11327;52.334;9.506;2022-08-18T12:22:22;11.50;;;10.32;;
22318;SDS011;11327;52.334;9.506;2022-08-18T12:25:45;13.15;;;11.95;;
22318;SDS011;11327;52.334;9.506;2022-08-18T12:29:06;13.90;;;12.68;;
22318;SDS011;11327;52.334;9.506;2022-08-18T12:32:28;13.08;;;11.85;;
22318;SDS011;11327;52.334;9.506;2022-08-18T12:35:52;11.83;;;10.82;;
22318;SDS011;11327;52.334;9.506;2022-08-18T12:39:13;12.73;;;11.55;;
22318;SDS011;11327;52.334;9.506;2022-08-18T12:42:34;11.18;;;10.20;;
22318;SDS011;11327;52.334;9.506;2022-08-18T12:45:55;11.15;;;10.15;;
22318;SDS011;11327;52.334;9.506;2022-08-18T12:49:20;11.55;;;10.55;;
22318;SDS011;11327;52.334;9.506;2022-08-18T12:52:43;9.15;;;8.35;;
22318;SDS011;11327;52.334;9.506;2022-08-18T12:56:20;9.95;;;9.05;;
22318;SDS011;11327;52.334;9.506;2022-08-18T12:59:31;10.60;;;9.70;;
22318;SDS011;11327;52.334;9.506;2022-08-18T13:02:52;12.00;;;10.90;;
22318;SDS011;11327;52.334;9.506;2022-08-18T13:06:13;9.70;;;8.80;;
22318;SDS011;11327;52.334;9.506;2022-08-18T13:09:35;9.13;;;8.23;;
22318;SDS011;11327;52.334;9.506;2022-08-18T13:12:57;9.95;;;9.05;;
22318;SDS011;11327;52.334;9.506;2022-08-18T13:16:18;8.93;;;8.03;;
22318;SDS011;11327;52.334;9.506;2022-08-18T13:19:40;8.00;;;7.28;;
22318;SDS011;11327;52.334;9.506;2022-08-18T13:23:01;8.10;;;7.40;;
22318;SDS011;11327;52.334;9.506;2022-08-18T13:26:25;7.35;;;6.75;;
22318;SDS011;11327;52.334;9.506;2022-08-18T13:29:48;7.87;;;7.17;;
22318;SDS011;11327;52.334;9.506;2022-08-18T13:33:09;8.50;;;7.70;;
22318;SDS011;11327;52.334;9.506;2022-08-18T13:36:30;8.93;;;8.13;;
22318;SDS011;11327;52.334;9.506;2022-08-18T13:39:53;9.55;;;7.70;;
22318;SDS011;11327;52.334;9.506;2022-08-18T13:43:15;8.83;;;7.92;;
22318;SDS011;11327;52.334;9.506;2022-08-18T13:46:38;8.98;;;7.70;;
22318;SDS011;11327;52.334;9.506;2022-08-18T13:50:01;9.68;;;8.35;;
22318;SDS011;11327;52.334;9.506;2022-08-18T13:53:22;8.48;;;7.78;;
22318;SDS011;11327;52.334;9.506;2022-08-18T13:56:45;7.90;;;7.20;;
22318;SDS011;11327;52.334;9.506;2022-08-18T14:00:06;8.30;;;7.40;;
22318;SDS011;11327;52.334;9.506;2022-08-18T14:03:30;8.50;;;7.70;;
22318;SDS011;11327;52.334;9.506;2022-08-18T14:06:52;8.20;;;7.47;;
22318;SDS011;11327;52.334;9.506;2022-08-18T14:10:14;7.90;;;7.08;;
22318;SDS011;11327;52.334;9.506;2022-08-18T14:13:36;9.23;;;7.72;;
22318;SDS011;11327;52.334;9.506;2022-08-18T14:16:57;8.05;;;7.30;;
22318;SDS011;11327;52.334;9.506;2022-08-18T14:20:18;11.08;;;8.00;;
22318;SDS011;11327;52.334;9.506;2022-08-18T14:23:58;7.80;;;7.10;;
22318;SDS011;11327;52.334;9.506;2022-08-18T14:27:37;8.83;;;7.92;;
22318;SDS011;11327;52.334;9.506;2022-08-18T14:30:59;8.08;;;7.37;;
22318;SDS011;11327;52.334;9.506;2022-08-18T14:34:21;7.75;;;7.05;;
22318;SDS011;11327;52.334;9.506;2022-08-18T14:37:42;6.95;;;6.35;;
22318;SDS011;11327;52.334;9.506;2022-08-18T14:41:04;8.25;;;6.70;;
22318;SDS011;11327;52.334;9.506;2022-08-18T14:44:26;6.83;;;6.25;;
22318;SDS011;11327;52.334;9.506;2022-08-18T14:47:47;7.87;;;6.72;;
22318;SDS011;11327;52.334;9.506;2022-08-18T14:51:10;6.70;;;6.10;;
22318;SDS011;11327;52.334;9.506;2022-08-18T14:54:31;7.75;;;5.87;;
22318;SDS011;11327;52.334;9.506;2022-08-18T14:57:54;6.10;;;5.50;;
22318;SDS011;11327;52.334;9.506;2022-08-18T15:01:14;6.00;;;5.40;;
22318;SDS011;11327;52.334;9.506;2022-08-18T15:04:37;5.75;;;5.17;;
22318;SDS011;11327;52.334;9.506;2022-08-18T15:07:59;5.60;;;5.10;;
22318;SDS011;11327;52.334;9.506;2022-08-18T15:11:23;5.60;;;5.10;;
22318;SDS011;11327;52.334;9.506;2022-08-18T15:14:44;5.08;;;4.60;;
22318;SDS011;11327;52.334;9.506;2022-08-18T15:18:07;5.20;;;4.70;;
22318;SDS011;11327;52.334;9.506;2022-08-18T15:21:28;4.95;;;4.50;;
22318;SDS011;11327;52.334;9.506;2022-08-18T15:25:08;5.08;;;4.58;;
22318;SDS011;11327;52.334;9.506;2022-08-18T15:28:48;5.42;;;4.92;;
22318;SDS011;11327;52.334;9.506;2022-08-18T15:32:09;5.20;;;4.72;;
22318;SDS011;11327;52.334;9.506;2022-08-18T15:35:32;5.25;;;4.67;;
22318;SDS011;11327;52.334;9.506;2022-08-18T15:38:54;5.28;;;4.78;;
22318;SDS011;11327;52.334;9.506;2022-08-18T15:42:16;5.28;;;4.78;;
22318;SDS011;11327;52.334;9.506;2022-08-18T15:45:38;5.78;;;4.87;;
22318;SDS011;11327;52.334;9.506;2022-08-18T15:49:00;5.08;;;4.50;;
22318;SDS011;11327;52.334;9.506;2022-08-18T15:52:24;7.53;;;4.50;;
22318;SDS011;11327;52.334;9.506;2022-08-18T15:55:45;4.92;;;4.40;;
22318;SDS011;11327;52.334;9.506;2022-08-18T15:59:06;5.83;;;4.80;;
22318;SDS011;11327;52.334;9.506;2022-08-18T16:02:29;6.10;;;4.53;;
22318;SDS011;11327;52.334;9.506;2022-08-18T16:05:52;5.50;;;4.65;;
22318;SDS011;11327;52.334;9.506;2022-08-18T16:09:13;5.10;;;4.62;;
22318;SDS011;11327;52.334;9.506;2022-08-18T16:12:35;6.30;;;4.40;;
22318;SDS011;11327;52.334;9.506;2022-08-18T16:15:56;6.00;;;4.60;;
22318;SDS011;11327;52.334;9.506;2022-08-18T16:19:17;6.95;;;4.37;;
22318;SDS011;11327;52.334;9.506;2022-08-18T16:22:39;4.75;;;4.35;;
22318;SDS011;11327;52.334;9.506;2022-08-18T16:26:00;5.37;;;4.80;;
22318;SDS011;11327;52.334;9.506;2022-08-18T16:29:22;5.80;;;4.50;;
22318;SDS011;11327;52.334;9.506;2022-08-18T16:32:46;5.20;;;4.80;;
22318;SDS011;11327;52.334;9.506;2022-08-18T16:36:08;5.35;;;4.80;;
22318;SDS011;11327;52.334;9.506;2022-08-18T16:39:30;7.60;;;5.12;;
22318;SDS011;11327;52.334;9.506;2022-08-18T16:42:53;6.03;;;4.75;;
22318;SDS011;11327;52.334;9.506;2022-08-18T16:46:16;7.00;;;6.30;;
22318;SDS011;11327;52.334;9.506;2022-08-18T16:49:40;7.23;;;4.70;;
22318;SDS011;11327;52.334;9.506;2022-08-18T16:53:01;5.92;;;5.08;;
22318;SDS011;11327;52.334;9.506;2022-08-18T16:56:25;4.92;;;4.53;;
22318;SDS011;11327;52.334;9.506;2022-08-18T16:59:48;4.92;;;4.40;;
22318;SDS011;11327;52.334;9.506;2022-08-18T17:03:28;6.60;;;4.65;;
22318;SDS011;11327;52.334;9.506;2022-08-18T17:07:07;6.00;;;4.80;;
22318;SDS011;11327;52.334;9.506;2022-08-18T17:10:29;6.05;;;4.47;;
22318;SDS011;11327;52.334;9.506;2022-08-18T17:13:53;5.65;;;4.65;;
22318;SDS011;11327;52.334;9.506;2022-08-18T17:17:16;7.83;;;5.20;;
22318;SDS011;11327;52.334;9.506;2022-08-18T17:20:37;5.22;;;4.47;;
22318;SDS011;11327;52.334;9.506;2022-08-18T17:23:59;5.28;;;4.78;;
22318;SDS011;11327;52.334;9.506;2022-08-18T17:27:25;6.62;;;5.28;;
22318;SDS011;11327;52.334;9.506;2022-08-18T17:30:47;6.75;;;4.85;;
22318;SDS011;11327;52.334;9.506;2022-08-18T17:34:11;7.60;;;5.37;;
22318;SDS011;11327;52.334;9.506;2022-08-18T17:37:34;5.08;;;4.58;;
22318;SDS011;11327;52.334;9.506;2022-08-18T17:40:56;5.70;;;5.10;;
22318;SDS011;11327;52.334;9.506;2022-08-18T17:44:18;5.80;;;5.28;;
22318;SDS011;11327;52.334;9.506;2022-08-18T17:51:15;7.60;;;5.35;;
22318;SDS011;11327;52.334;9.506;2022-08-18T17:55:04;7.55;;;5.72;;
22318;SDS011;11327;52.334;9.506;2022-08-18T17:58:26;7.47;;;5.97;;
22318;SDS011;11327;52.334;9.506;2022-08-18T18:02:18;5.83;;;5.17;;
22318;SDS011;11327;52.334;9.506;2022-08-18T18:05:42;7.33;;;5.40;;
22318;SDS011;11327;52.334;9.506;2022-08-18T18:09:10;5.33;;;4.70;;
22318;SDS011;11327;52.334;9.506;2022-08-18T18:12:33;5.12;;;4.62;;
22318;SDS011;11327;52.334;9.506;2022-08-18T18:15:57;6.10;;;5.10;;
22318;SDS011;11327;52.334;9.506;2022-08-18T18:19:23;6.10;;;4.80;;
22318;SDS011;11327;52.334;9.506;2022-08-18T18:22:46;10.60;;;5.10;;
22318;SDS011;11327;52.334;9.506;2022-08-18T18:29:54;7.92;;;5.78;;
22318;SDS011;11327;52.334;9.506;2022-08-18T18:33:17;10.55;;;6.70;;
22318;SDS011;11327;52.334;9.506;2022-08-18T18:36:42;7.70;;;6.85;;
22318;SDS011;11327;52.334;9.506;2022-08-18T18:40:06;8.10;;;6.75;;
22318;SDS011;11327;52.334;9.506;2022-08-18T18:43:41;11.65;;;7.50;;
22318;SDS011;11327;52.334;9.506;2022-08-18T18:47:08;10.75;;;7.83;;
22318;SDS011;11327;52.334;9.506;2022-08-18T19:01:03;7.97;;;7.20;;
22318;SDS011;11327;52.334;9.506;2022-08-18T19:15:39;9.13;;;7.92;;
22318;SDS011;11327;52.334;9.506;2022-08-18T19:19:10;8.85;;;7.95;;
22318;SDS011;11327;52.334;9.506;2022-08-18T19:22:38;9.85;;;8.30;;
22318;SDS011;11327;52.334;9.506;2022-08-18T19:26:00;10.43;;;8.28;;
22318;SDS011;11327;52.334;9.506;2022-08-18T19:29:25;10.28;;;8.28;;
22318;SDS011;11327;52.334;9.506;2022-08-18T19:32:56;9.80;;;8.30;;
22318;SDS011;11327;52.334;9.506;2022-08-18T19:43:17;9.53;;;8.50;;
22318;SDS011;11327;52.334;9.506;2022-08-18T19:47:09;11.10;;;8.63;;
22318;SDS011;11327;52.334;9.506;2022-08-18T20:23:30;11.03;;;8.40;;
22318;SDS011;11327;52.334;9.506;2022-08-18T20:26:53;10.38;;;7.87;;
22318;SDS011;11327;52.334;9.506;2022-08-18T20:30:28;10.78;;;8.03;;
22318;SDS011;11327;52.334;9.506;2022-08-18T20:34:10;11.05;;;7.35;;
22318;SDS011;11327;52.334;9.506;2022-08-18T20:37:30;9.50;;;7.87;;
22318;SDS011;11327;52.334;9.506;2022-08-18T20:40:51;8.20;;;6.78;;
22318;SDS011;11327;52.334;9.506;2022-08-18T20:48:10;10.35;;;7.05;;
22318;SDS011;11327;52.334;9.506;2022-08-18T20:51:31;9.88;;;7.35;;
22318;SDS011;11327;52.334;9.506;2022-08-18T20:58:51;10.53;;;7.55;;
22318;SDS011;11327;52.334;9.506;2022-08-18T21:05:54;9.28;;;6.70;;
22318;SDS011;11327;52.334;9.506;2022-08-18T21:09:17;9.35;;;7.65;;
22318;SDS011;11327;52.334;9.506;2022-08-18T21:12:38;8.08;;;6.92;;
22318;SDS011;11327;52.334;9.506;2022-08-18T21:15:59;10.65;;;7.28;;
22318;SDS011;11327;52.334;9.506;2022-08-18T21:19:21;10.35;;;7.20;;
22318;SDS011;11327;52.334;9.506;2022-08-18T21:22:47;8.95;;;7.22;;
22318;SDS011;11327;52.334;9.506;2022-08-18T21:26:11;11.95;;;7.42;;
22318;SDS011;11327;52.334;9.506;2022-08-18T21:29:34;7.62;;;6.80;;
22318;SDS011;11327;52.334;9.506;2022-08-18T21:32:56;9.18;;;6.90;;
22318;SDS011;11327;52.334;9.506;2022-08-18T21:36:18;8.93;;;6.40;;
22318;SDS011;11327;52.334;9.506;2022-08-18T21:43:32;7.87;;;6.05;;
22318;SDS011;11327;52.334;9.506;2022-08-18T21:47:13;8.30;;;6.33;;
22318;SDS011;11327;52.334;9.506;2022-08-18T21:50:27;8.03;;;5.67;;
22318;SDS011;11327;52.334;9.506;2022-08-18T21:53:50;8.83;;;5.90;;
22318;SDS011;11327;52.334;9.506;2022-08-18T21:57:22;9.28;;;6.55;;
22318;SDS011;11327;52.334;9.506;2022-08-18T22:00:42;8.60;;;6.37;;
22318;SDS011;11327;52.334;9.506;2022-08-18T22:04:19;9.35;;;5.92;;
22318;SDS011;11327;52.334;9.506;2022-08-18T22:07:47;10.08;;;6.20;;
22318;SDS011;11327;52.334;9.506;2022-08-18T22:15:08;8.08;;;6.37;;
22318;SDS011;11327;52.334;9.506;2022-08-18T22:18:35;8.38;;;5.83;;
22318;SDS011;11327;52.334;9.506;2022-08-18T22:25:28;9.15;;;6.20;;
22318;SDS011;11327;52.334;9.506;2022-08-18T22:32:27;7.92;;;6.03;;
22318;SDS011;11327;52.334;9.506;2022-08-18T22:35:52;7.37;;;6.12;;
22318;SDS011;11327;52.334;9.506;2022-08-18T22:39:17;8.95;;;6.35;;
22318;SDS011;11327;52.334;9.506;2022-08-18T22:42:39;8.50;;;6.15;;
22318;SDS011;11327;52.334;9.506;2022-08-18T22:46:01;8.33;;;5.90;;
22318;SDS011;11327;52.334;9.506;2022-08-18T22:49:22;7.72;;;6.45;;
22318;SDS011;11327;52.334;9.506;2022-08-18T22:52:45;8.40;;;5.75;;
22318;SDS011;11327;52.334;9.506;2022-08-18T22:56:07;9.00;;;6.83;;
22318;SDS011;11327;52.334;9.506;2022-08-18T22:59:28;8.18;;;6.10;;
22318;SDS011;11327;52.334;9.506;2022-08-18T23:02:50;7.00;;;6.00;;
22318;SDS011;11327;52.334;9.506;2022-08-18T23:06:11;9.13;;;6.33;;
22318;SDS011;11327;52.334;9.506;2022-08-18T23:09:32;8.43;;;5.60;;
22318;SDS011;11327;52.334;9.506;2022-08-18T23:12:53;8.90;;;6.58;;
22318;SDS011;11327;52.334;9.506;2022-08-18T23:16:14;8.38;;;6.30;;
22318;SDS011;11327;52.334;9.506;2022-08-18T23:19:35;9.13;;;6.22;;
22318;SDS011;11327;52.334;9.506;2022-08-18T23:22:56;8.50;;;6.08;;
22318;SDS011;11327;52.334;9.506;2022-08-18T23:26:18;7.17;;;6.17;;
22318;SDS011;11327;52.334;9.506;2022-08-18T23:29:39;7.22;;;5.90;;
22318;SDS011;11327;52.334;9.506;2022-08-18T23:33:00;8.08;;;6.10;;
22318;SDS011;11327;52.334;9.506;2022-08-18T23:36:22;7.72;;;5.70;;
22318;SDS011;11327;52.334;9.506;2022-08-18T23:39:44;8.23;;;6.50;;
22318;SDS011;11327;52.334;9.506;2022-08-18T23:43:06;8.30;;;6.37;;
22318;SDS011;11327;52.334;9.506;2022-08-18T23:46:29;8.90;;;6.60;;
22318;SDS011;11327;52.334;9.506;2022-08-18T23:49:51;8.88;;;6.33;;
22318;SDS011;11327;52.334;9.506;2022-08-18T23:53:12;7.65;;;6.20;;
22318;SDS011;11327;52.334;9.506;2022-08-18T23:56:35;9.13;;;6.28;;